sensor_id;sensor_type;location;lat;lon;timestamp;pressure;altitude;pressure_sealevel;temperature;humidity
13027;BME280;6580;42.680;23.324;2023-01-27T00:00:53;94489.88;;;1.66;100.00
13027;BME280;6580;42.680;23.324;2023-01-27T00:03:20;94462.69;;;1.56;100.00
13027;BME280;6580;42.680;23.324;2023-01-27T00:05:48;94491.31;;;1.59;100.00
13027;BME280;6580;42.680;23.324;2023-01-27T00:08:16;94506.94;;;1.60;100.00
13027;BME280;6580;42.680;23.324;2023-01-27T00:10:48;94495.97;;;1.55;100.00
13027;BME280;6580;42.680;23.324;2023-01-27T00:13:38;94493.31;;;1.66;100.00
13027;BME280;6580;42.680;23.324;2023-01-27T00:16:04;94486.88;;;1.70;100.00
13027;BME280;6580;42.680;23.324;2023-01-27T00:18:32;94491.91;;;1.62;100.00
13027;BME280;6580;42.680;23.324;2023-01-27T00:20:59;94493.06;;;1.69;100.00
13027;BME280;6580;42.680;23.324;2023-01-27T00:23:44;94476.09;;;1.53;100.00
13027;BME280;6580;42.680;23.324;2023-01-27T00:26:32;94457.09;;;1.49;100.00
13027;BME280;6580;42.680;23.324;2023-01-27T00:29:03;94454.00;;;1.55;100.00
13027;BME280;6580;42.680;23.324;2023-01-27T00:31:30;94464.34;;;1.57;100.00
13027;BME280;6580;42.680;23.324;2023-01-27T00:34:15;94467.78;;;1.68;100.00
13027;BME280;6580;42.680;23.324;2023-01-27T00:36:43;94459.25;;;1.55;100.00
13027;BME280;6580;42.680;23.324;2023-01-27T00:39:12;94475.25;;;1.41;100.00
13027;BME280;6580;42.680;23.324;2023-01-27T00:41:40;94472.13;;;1.58;100.00
13027;BME280;6580;42.680;23.324;2023-01-27T00:44:08;94462.09;;;1.63;100.00
13027;BME280;6580;42.680;23.324;2023-01-27T00:49:26;94472.66;;;1.41;100.00
13027;BME280;6580;42.680;23.324;2023-01-27T00:51:58;94486.69;;;1.51;100.00
13027;BME280;6580;42.680;23.324;2023-01-27T00:54:31;94483.78;;;1.65;100.00
13027;BME280;6580;42.680;23.324;2023-01-27T00:57:04;94467.69;;;1.70;100.00
13027;BME280;6580;42.680;23.324;2023-01-27T00:59:33;94474.28;;;1.53;100.00
13027;BME280;6580;42.680;23.324;2023-01-27T01:02:03;94466.50;;;1.63;100.00
13027;BME280;6580;42.680;23.324;2023-01-27T01:04:34;94468.41;;;1.72;100.00
13027;BME280;6580;42.680;23.324;2023-01-27T01:07:03;94465.16;;;1.68;100.00
13027;BME280;6580;42.680;23.324;2023-01-27T01:09:32;94448.81;;;1.44;100.00
13027;BME280;6580;42.680;23.324;2023-01-27T01:12:01;94462.88;;;1.43;100.00
13027;BME280;6580;42.680;23.324;2023-01-27T01:14:31;94459.19;;;1.66;100.00
13027;BME280;6580;42.680;23.324;2023-01-27T01:17:00;94473.88;;;1.69;100.00
13027;BME280;6580;42.680;23.324;2023-01-27T01:19:29;94465.31;;;1.56;100.00
13027;BME280;6580;42.680;23.324;2023-01-27T01:21:56;94469.16;;;1.52;100.00
13027;BME280;6580;42.680;23.324;2023-01-27T01:24:23;94471.19;;;1.48;100.00
13027;BME280;6580;42.680;23.324;2023-01-27T01:26:55;94466.19;;;1.45;100.00
13027;BME280;6580;42.680;23.324;2023-01-27T01:29:26;94471.66;;;1.53;100.00
13027;BME280;6580;42.680;23.324;2023-01-27T01:31:54;94456.09;;;1.72;100.00
13027;BME280;6580;42.680;23.324;2023-01-27T01:34:28;94466.13;;;1.67;100.00
13027;BME280;6580;42.680;23.324;2023-01-27T01:36:57;94465.38;;;1.76;100.00
13027;BME280;6580;42.680;23.324;2023-01-27T01:39:24;94465.16;;;1.68;100.00
13027;BME280;6580;42.680;23.324;2023-01-27T01:41:51;94485.44;;;1.66;100.00
13027;BME280;6580;42.680;23.324;2023-01-27T01:44:20;94482.72;;;1.57;100.00
13027;BME280;6580;42.680;23.324;2023-01-27T01:46:46;94486.91;;;1.59;100.00
13027;BME280;6580;42.680;23.324;2023-01-27T01:49:19;94481.03;;;1.67;100.00
13027;BME280;6580;42.680;23.324;2023-01-27T01:51:51;94480.91;;;1.68;100.00
13027;BME280;6580;42.680;23.324;2023-01-27T01:54:22;94466.00;;;1.69;100.00
13027;BME280;6580;42.680;23.324;2023-01-27T01:56:53;94464.06;;;1.82;100.00
13027;BME280;6580;42.680;23.324;2023-01-27T01:59:25;94453.22;;;1.75;100.00
13027;BME280;6580;42.680;23.324;2023-01-27T02:01:58;94450.84;;;1.72;100.00
13027;BME280;6580;42.680;23.324;2023-01-27T02:04:33;94438.22;;;1.66;100.00
13027;BME280;6580;42.680;23.324;2023-01-27T02:07:05;94438.75;;;2.12;100.00
13027;BME280;6580;42.680;23.324;2023-01-27T02:09:38;94435.19;;;2.02;100.00
13027;BME280;6580;42.680;23.324;2023-01-27T02:12:07;94429.19;;;2.11;100.00
13027;BME280;6580;42.680;23.324;2023-01-27T02:14:36;94416.44;;;1.86;100.00
13027;BME280;6580;42.680;23.324;2023-01-27T02:17:07;94408.56;;;1.86;100.00
13027;BME280;6580;42.680;23.324;2023-01-27T02:19:42;94413.84;;;1.75;100.00
13027;BME280;6580;42.680;23.324;2023-01-27T02:22:16;94405.56;;;1.91;100.00
13027;BME280;6580;42.680;23.324;2023-01-27T02:24:55;94395.88;;;1.91;100.00
13027;BME280;6580;42.680;23.324;2023-01-27T02:27:27;94404.66;;;1.81;100.00
13027;BME280;6580;42.680;23.324;2023-01-27T02:29:56;94403.47;;;1.74;100.00
13027;BME280;6580;42.680;23.324;2023-01-27T02:32:25;94402.66;;;1.73;100.00
13027;BME280;6580;42.680;23.324;2023-01-27T02:34:55;94407.44;;;1.68;100.00
13027;BME280;6580;42.680;23.324;2023-01-27T02:37:26;94389.84;;;1.59;100.00
13027;BME280;6580;42.680;23.324;2023-01-27T02:39:57;94411.63;;;1.71;100.00
13027;BME280;6580;42.680;23.324;2023-01-27T02:42:28;94401.22;;;1.69;100.00
13027;BME280;6580;42.680;23.324;2023-01-27T02:44:57;94403.81;;;1.80;100.00
13027;BME280;6580;42.680;23.324;2023-01-27T02:47:29;94407.41;;;1.79;100.00
13027;BME280;6580;42.680;23.324;2023-01-27T02:49:55;94411.94;;;1.77;100.00
13027;BME280;6580;42.680;23.324;2023-01-27T02:52:24;94412.19;;;1.74;100.00
13027;BME280;6580;42.680;23.324;2023-01-27T02:54:50;94412.19;;;1.74;100.00
13027;BME280;6580;42.680;23.324;2023-01-27T02:57:17;94411.25;;;1.64;100.00
13027;BME280;6580;42.680;23.324;2023-01-27T02:59:47;94413.47;;;1.48;100.00
13027;BME280;6580;42.680;23.324;2023-01-27T03:02:15;94414.34;;;1.69;100.00
13027;BME280;6580;42.680;23.324;2023-01-27T03:04:48;94410.69;;;1.61;100.00
13027;BME280;6580;42.680;23.324;2023-01-27T03:07:19;94406.28;;;1.61;100.00
13027;BME280;6580;42.680;23.324;2023-01-27T03:09:47;94399.88;;;1.75;100.00
13027;BME280;6580;42.680;23.324;2023-01-27T03:12:15;94399.38;;;1.60;100.00
13027;BME280;6580;42.680;23.324;2023-01-27T03:14:51;94398.13;;;1.75;100.00
13027;BME280;6580;42.680;23.324;2023-01-27T03:17:36;94398.84;;;1.66;100.00
13027;BME280;6580;42.680;23.324;2023-01-27T03:20:25;94384.66;;;1.69;100.00
13027;BME280;6580;42.680;23.324;2023-01-27T03:22:54;94381.66;;;1.73;100.00
13027;BME280;6580;42.680;23.324;2023-01-27T03:25:22;94384.00;;;1.56;100.00
13027;BME280;6580;42.680;23.324;2023-01-27T03:27:55;94369.25;;;1.75;100.00
13027;BME280;6580;42.680;23.324;2023-01-27T03:30:23;94371.00;;;1.54;100.00
13027;BME280;6580;42.680;23.324;2023-01-27T03:33:14;94366.09;;;1.61;100.00
13027;BME280;6580;42.680;23.324;2023-01-27T03:35:45;94378.81;;;1.65;100.00
13027;BME280;6580;42.680;23.324;2023-01-27T03:38:19;94366.72;;;1.53;100.00
13027;BME280;6580;42.680;23.324;2023-01-27T03:41:04;94357.97;;;1.84;100.00
13027;BME280;6580;42.680;23.324;2023-01-27T03:43:48;94342.69;;;1.69;100.00
13027;BME280;6580;42.680;23.324;2023-01-27T03:46:35;94339.91;;;1.70;100.00
13027;BME280;6580;42.680;23.324;2023-01-27T03:49:02;94339.75;;;1.83;100.00
13027;BME280;6580;42.680;23.324;2023-01-27T03:51:29;94342.22;;;1.84;100.00
13027;BME280;6580;42.680;23.324;2023-01-27T03:53:56;94345.25;;;2.00;100.00
13027;BME280;6580;42.680;23.324;2023-01-27T03:56:25;94351.06;;;1.83;100.00
13027;BME280;6580;42.680;23.324;2023-01-27T03:58:55;94346.88;;;2.01;100.00
13027;BME280;6580;42.680;23.324;2023-01-27T04:01:24;94340.25;;;1.77;100.00
13027;BME280;6580;42.680;23.324;2023-01-27T04:03:53;94349.66;;;1.79;100.00
13027;BME280;6580;42.680;23.324;2023-01-27T04:06:41;94360.56;;;1.95;100.00
13027;BME280;6580;42.680;23.324;2023-01-27T04:09:23;94380.38;;;1.88;100.00
13027;BME280;6580;42.680;23.324;2023-01-27T04:11:54;94382.56;;;1.83;100.00
13027;BME280;6580;42.680;23.324;2023-01-27T04:14:25;94359.78;;;1.63;100.00
13027;BME280;6580;42.680;23.324;2023-01-27T04:16:55;94408.47;;;1.77;100.00
13027;BME280;6580;42.680;23.324;2023-01-27T04:19:26;94424.66;;;1.61;100.00
13027;BME280;6580;42.680;23.324;2023-01-27T04:21:56;94417.81;;;1.70;100.00
13027;BME280;6580;42.680;23.324;2023-01-27T04:24:23;94415.16;;;1.81;100.00
13027;BME280;6580;42.680;23.324;2023-01-27T04:26:55;94407.91;;;1.73;100.00
13027;BME280;6580;42.680;23.324;2023-01-27T04:29:24;94411.47;;;1.72;100.00
13027;BME280;6580;42.680;23.324;2023-01-27T04:31:53;94428.50;;;1.78;100.00
13027;BME280;6580;42.680;23.324;2023-01-27T04:34:25;94429.81;;;1.52;100.00
13027;BME280;6580;42.680;23.324;2023-01-27T04:36:55;94426.91;;;1.66;100.00
13027;BME280;6580;42.680;23.324;2023-01-27T04:39:25;94430.50;;;1.85;100.00
13027;BME280;6580;42.680;23.324;2023-01-27T04:41:54;94432.56;;;1.82;100.00
13027;BME280;6580;42.680;23.324;2023-01-27T04:44:24;94433.97;;;1.86;100.00
13027;BME280;6580;42.680;23.324;2023-01-27T04:46:56;94437.31;;;1.88;100.00
13027;BME280;6580;42.680;23.324;2023-01-27T04:49:25;94423.88;;;1.70;100.00
13027;BME280;6580;42.680;23.324;2023-01-27T04:51:52;94417.91;;;1.79;100.00
13027;BME280;6580;42.680;23.324;2023-01-27T04:54:21;94435.97;;;1.93;100.00
13027;BME280;6580;42.680;23.324;2023-01-27T04:56:55;94445.38;;;1.96;100.00
13027;BME280;6580;42.680;23.324;2023-01-27T04:59:26;94437.47;;;2.06;100.00
13027;BME280;6580;42.680;23.324;2023-01-27T05:01:56;94432.72;;;2.00;100.00
13027;BME280;6580;42.680;23.324;2023-01-27T05:04:26;94431.75;;;1.81;100.00
13027;BME280;6580;42.680;23.324;2023-01-27T05:06:53;94442.25;;;1.81;100.00
13027;BME280;6580;42.680;23.324;2023-01-27T05:09:29;94451.81;;;1.71;100.00
13027;BME280;6580;42.680;23.324;2023-01-27T05:11:58;94435.91;;;1.84;100.00
13027;BME280;6580;42.680;23.324;2023-01-27T05:14:25;94429.06;;;1.92;100.00
13027;BME280;6580;42.680;23.324;2023-01-27T05:16:54;94423.41;;;1.97;100.00
13027;BME280;6580;42.680;23.324;2023-01-27T05:19:22;94428.34;;;1.90;100.00
13027;BME280;6580;42.680;23.324;2023-01-27T05:21:56;94433.38;;;1.82;100.00
13027;BME280;6580;42.680;23.324;2023-01-27T05:24:23;94437.06;;;1.91;100.00
13027;BME280;6580;42.680;23.324;2023-01-27T05:26:53;94409.09;;;2.00;100.00
13027;BME280;6580;42.680;23.324;2023-01-27T05:29:23;94410.69;;;2.12;100.00
13027;BME280;6580;42.680;23.324;2023-01-27T05:31:50;94413.38;;;2.01;100.00
13027;BME280;6580;42.680;23.324;2023-01-27T05:34:18;94406.38;;;1.91;100.00
13027;BME280;6580;42.680;23.324;2023-01-27T05:36:46;94409.28;;;2.08;100.00
13027;BME280;6580;42.680;23.324;2023-01-27T05:39:15;94418.06;;;1.98;100.00
13027;BME280;6580;42.680;23.324;2023-01-27T05:41:42;94409.72;;;1.93;100.00
13027;BME280;6580;42.680;23.324;2023-01-27T05:44:10;94399.22;;;1.93;100.00
13027;BME280;6580;42.680;23.324;2023-01-27T05:46:38;94403.06;;;1.89;100.00
13027;BME280;6580;42.680;23.324;2023-01-27T05:49:06;94402.72;;;1.83;100.00
13027;BME280;6580;42.680;23.324;2023-01-27T05:51:35;94407.03;;;1.84;100.00
13027;BME280;6580;42.680;23.324;2023-01-27T05:54:05;94413.31;;;1.92;100.00
13027;BME280;6580;42.680;23.324;2023-01-27T05:56:40;94417.78;;;2.01;100.00
13027;BME280;6580;42.680;23.324;2023-01-27T05:59:11;94398.66;;;1.90;100.00
13027;BME280;6580;42.680;23.324;2023-01-27T06:01:38;94422.38;;;1.88;100.00
13027;BME280;6580;42.680;23.324;2023-01-27T06:04:09;94430.78;;;2.02;100.00
13027;BME280;6580;42.680;23.324;2023-01-27T06:06:36;94429.31;;;1.89;100.00
13027;BME280;6580;42.680;23.324;2023-01-27T06:09:09;94406.84;;;1.96;100.00
13027;BME280;6580;42.680;23.324;2023-01-27T06:11:39;94406.16;;;1.83;100.00
13027;BME280;6580;42.680;23.324;2023-01-27T06:14:06;94412.34;;;1.93;100.00
13027;BME280;6580;42.680;23.324;2023-01-27T06:16:35;94414.66;;;2.07;100.00
13027;BME280;6580;42.680;23.324;2023-01-27T06:19:03;94418.56;;;2.12;100.00
13027;BME280;6580;42.680;23.324;2023-01-27T06:21:31;94404.72;;;2.10;100.00
13027;BME280;6580;42.680;23.324;2023-01-27T06:24:00;94422.03;;;2.13;100.00
13027;BME280;6580;42.680;23.324;2023-01-27T06:26:28;94428.28;;;2.01;100.00
13027;BME280;6580;42.680;23.324;2023-01-27T06:28:59;94426.25;;;2.04;100.00
13027;BME280;6580;42.680;23.324;2023-01-27T06:31:27;94433.41;;;2.02;100.00
13027;BME280;6580;42.680;23.324;2023-01-27T06:33:54;94416.56;;;2.05;100.00
13027;BME280;6580;42.680;23.324;2023-01-27T06:36:21;94427.31;;;2.02;100.00
13027;BME280;6580;42.680;23.324;2023-01-27T06:38:52;94424.69;;;2.02;100.00
13027;BME280;6580;42.680;23.324;2023-01-27T06:41:21;94422.03;;;2.13;100.00
13027;BME280;6580;42.680;23.324;2023-01-27T06:43:51;94426.06;;;2.17;100.00
13027;BME280;6580;42.680;23.324;2023-01-27T06:46:19;94430.09;;;2.21;100.00
13027;BME280;6580;42.680;23.324;2023-01-27T06:48:46;94431.19;;;2.18;100.00
13027;BME280;6580;42.680;23.324;2023-01-27T06:51:12;94431.00;;;2.31;100.00
13027;BME280;6580;42.680;23.324;2023-01-27T06:53:39;94431.38;;;2.06;100.00
13027;BME280;6580;42.680;23.324;2023-01-27T06:56:12;94431.94;;;2.09;100.00
13027;BME280;6580;42.680;23.324;2023-01-27T06:58:42;94438.47;;;1.95;100.00
13027;BME280;6580;42.680;23.324;2023-01-27T07:01:11;94438.34;;;1.96;100.00
13027;BME280;6580;42.680;23.324;2023-01-27T07:03:42;94447.69;;;1.89;100.00
13027;BME280;6580;42.680;23.324;2023-01-27T07:06:10;94443.47;;;1.98;100.00
13027;BME280;6580;42.680;23.324;2023-01-27T07:08:37;94449.34;;;1.90;100.00
13027;BME280;6580;42.680;23.324;2023-01-27T07:11:04;94445.84;;;2.00;100.00
13027;BME280;6580;42.680;23.324;2023-01-27T07:13:32;94451.41;;;2.07;100.00
13027;BME280;6580;42.680;23.324;2023-01-27T07:15:59;94448.84;;;2.16;100.00
13027;BME280;6580;42.680;23.324;2023-01-27T07:18:26;94443.03;;;2.13;100.00
13027;BME280;6580;42.680;23.324;2023-01-27T07:20:58;94436.03;;;2.23;100.00
13027;BME280;6580;42.680;23.324;2023-01-27T07:23:26;94430.22;;;2.40;100.00
13027;BME280;6580;42.680;23.324;2023-01-27T07:25:54;94435.97;;;2.54;100.00
13027;BME280;6580;42.680;23.324;2023-01-27T07:28:21;94424.75;;;2.52;100.00
13027;BME280;6580;42.680;23.324;2023-01-27T07:30:51;94426.44;;;2.53;100.00
13027;BME280;6580;42.680;23.324;2023-01-27T07:33:19;94429.59;;;2.27;100.00
13027;BME280;6580;42.680;23.324;2023-01-27T07:35:47;94428.16;;;2.23;100.00
13027;BME280;6580;42.680;23.324;2023-01-27T07:38:16;94436.13;;;2.53;100.00
13027;BME280;6580;42.680;23.324;2023-01-27T07:40:42;94428.22;;;2.32;100.00
13027;BME280;6580;42.680;23.324;2023-01-27T07:43:09;94439.72;;;2.52;100.00
13027;BME280;6580;42.680;23.324;2023-01-27T07:45:36;94440.53;;;2.52;100.00
13027;BME280;6580;42.680;23.324;2023-01-27T07:48:04;94450.53;;;2.58;100.00
13027;BME280;6580;42.680;23.324;2023-01-27T07:50:32;94442.69;;;2.47;100.00
13027;BME280;6580;42.680;23.324;2023-01-27T07:52:59;94431.16;;;2.39;100.00
13027;BME280;6580;42.680;23.324;2023-01-27T07:55:28;94439.06;;;2.39;100.00
13027;BME280;6580;42.680;23.324;2023-01-27T07:57:55;94451.03;;;2.52;100.00
13027;BME280;6580;42.680;23.324;2023-01-27T08:00:24;94455.22;;;2.55;100.00
13027;BME280;6580;42.680;23.324;2023-01-27T08:02:53;94450.84;;;2.65;100.00
13027;BME280;6580;42.680;23.324;2023-01-27T08:05:21;94443.44;;;2.79;100.00
13027;BME280;6580;42.680;23.324;2023-01-27T08:07:48;94441.28;;;2.94;100.00
13027;BME280;6580;42.680;23.324;2023-01-27T08:10:16;94436.97;;;3.22;100.00
13027;BME280;6580;42.680;23.324;2023-01-27T08:12:45;94428.97;;;3.33;100.00
13027;BME280;6580;42.680;23.324;2023-01-27T08:15:12;94432.84;;;3.29;100.00
13027;BME280;6580;42.680;23.324;2023-01-27T08:17:39;94423.28;;;3.28;100.00
13027;BME280;6580;42.680;23.324;2023-01-27T08:20:08;94426.06;;;3.27;100.00
13027;BME280;6580;42.680;23.324;2023-01-27T08:22:36;94415.13;;;3.31;100.00
13027;BME280;6580;42.680;23.324;2023-01-27T08:25:03;94433.94;;;3.27;100.00
13027;BME280;6580;42.680;23.324;2023-01-27T08:27:31;94444.28;;;3.19;100.00
13027;BME280;6580;42.680;23.324;2023-01-27T08:30:00;94438.72;;;3.12;100.00
13027;BME280;6580;42.680;23.324;2023-01-27T08:32:26;94441.16;;;3.34;100.00
13027;BME280;6580;42.680;23.324;2023-01-27T08:34:54;94438.50;;;3.25;100.00
13027;BME280;6580;42.680;23.324;2023-01-27T08:37:22;94429.47;;;3.08;100.00
13027;BME280;6580;42.680;23.324;2023-01-27T08:39:49;94448.25;;;3.04;100.00
13027;BME280;6580;42.680;23.324;2023-01-27T08:42:16;94451.63;;;2.86;100.00
13027;BME280;6580;42.680;23.324;2023-01-27T08:44:43;94452.72;;;2.83;100.00
13027;BME280;6580;42.680;23.324;2023-01-27T08:47:11;94460.44;;;2.75;100.00
13027;BME280;6580;42.680;23.324;2023-01-27T08:49:38;94452.06;;;2.61;100.00
13027;BME280;6580;42.680;23.324;2023-01-27T08:52:05;94450.50;;;2.38;100.00
13027;BME280;6580;42.680;23.324;2023-01-27T08:54:33;94458.28;;;2.60;100.00
13027;BME280;6580;42.680;23.324;2023-01-27T08:56:59;94445.34;;;2.27;100.00
13027;BME280;6580;42.680;23.324;2023-01-27T08:59:29;94449.72;;;2.17;100.00
13027;BME280;6580;42.680;23.324;2023-01-27T09:01:55;94453.78;;;2.30;100.00
13027;BME280;6580;42.680;23.324;2023-01-27T09:04:23;94452.63;;;2.44;100.00
13027;BME280;6580;42.680;23.324;2023-01-27T09:06:50;94455.25;;;2.64;100.00
13027;BME280;6580;42.680;23.324;2023-01-27T09:09:18;94441.06;;;2.05;100.00
13027;BME280;6580;42.680;23.324;2023-01-27T09:11:45;94450.19;;;2.31;100.00
13027;BME280;6580;42.680;23.324;2023-01-27T09:14:12;94433.38;;;2.34;100.00
13027;BME280;6580;42.680;23.324;2023-01-27T09:16:39;94449.56;;;2.39;100.00
13027;BME280;6580;42.680;23.324;2023-01-27T09:19:06;94455.00;;;2.47;100.00
13027;BME280;6580;42.680;23.324;2023-01-27T09:21:34;94453.25;;;2.57;100.00
13027;BME280;6580;42.680;23.324;2023-01-27T09:24:01;94430.69;;;2.75;100.00
13027;BME280;6580;42.680;23.324;2023-01-27T09:26:28;94440.41;;;2.84;100.00
13027;BME280;6580;42.680;23.324;2023-01-27T09:28:55;94438.84;;;3.01;100.00
13027;BME280;6580;42.680;23.324;2023-01-27T09:31:21;94439.16;;;3.17;100.00
13027;BME280;6580;42.680;23.324;2023-01-27T09:33:49;94429.59;;;3.07;100.00
13027;BME280;6580;42.680;23.324;2023-01-27T09:36:18;94422.75;;;2.95;100.00
13027;BME280;6580;42.680;23.324;2023-01-27T09:38:50;94411.69;;;3.01;100.00
13027;BME280;6580;42.680;23.324;2023-01-27T09:41:44;94418.34;;;3.05;100.00
13027;BME280;6580;42.680;23.324;2023-01-27T09:44:30;94402.72;;;3.03;100.00
13027;BME280;6580;42.680;23.324;2023-01-27T09:47:21;94408.88;;;2.84;100.00
13027;BME280;6580;42.680;23.324;2023-01-27T09:50:03;94407.97;;;2.74;100.00
13027;BME280;6580;42.680;23.324;2023-01-27T09:53:08;94406.31;;;3.02;100.00
13027;BME280;6580;42.680;23.324;2023-01-27T09:55:45;94406.34;;;2.73;100.00
13027;BME280;6580;42.680;23.324;2023-01-27T09:58:23;94391.84;;;2.78;100.00
13027;BME280;6580;42.680;23.324;2023-01-27T10:00:58;94389.81;;;2.91;100.00
13027;BME280;6580;42.680;23.324;2023-01-27T10:03:55;94384.28;;;2.94;100.00
13027;BME280;6580;42.680;23.324;2023-01-27T10:06:46;94391.31;;;2.94;100.00
13027;BME280;6580;42.680;23.324;2023-01-27T10:09:34;94392.63;;;2.99;100.00
13027;BME280;6580;42.680;23.324;2023-01-27T10:12:18;94383.72;;;2.91;100.00
13027;BME280;6580;42.680;23.324;2023-01-27T10:14:53;94387.50;;;3.07;100.00
13027;BME280;6580;42.680;23.324;2023-01-27T10:17:33;94378.75;;;2.97;100.00
13027;BME280;6580;42.680;23.324;2023-01-27T10:20:13;94385.22;;;2.84;100.00
13027;BME280;6580;42.680;23.324;2023-01-27T10:22:50;94388.63;;;2.75;100.00
13027;BME280;6580;42.680;23.324;2023-01-27T10:25:27;94391.34;;;2.64;100.00
13027;BME280;6580;42.680;23.324;2023-01-27T10:28:02;94378.03;;;2.56;100.00
13027;BME280;6580;42.680;23.324;2023-01-27T10:30:34;94385.78;;;2.57;100.00
13027;BME280;6580;42.680;23.324;2023-01-27T10:33:08;94387.47;;;2.58;100.00
13027;BME280;6580;42.680;23.324;2023-01-27T10:35:43;94378.81;;;2.77;100.00
13027;BME280;6580;42.680;23.324;2023-01-27T10:38:19;94385.31;;;2.73;100.00
13027;BME280;6580;42.680;23.324;2023-01-27T10:40:53;94374.00;;;2.82;100.00
13027;BME280;6580;42.680;23.324;2023-01-27T10:43:26;94363.47;;;2.82;100.00
13027;BME280;6580;42.680;23.324;2023-01-27T10:46:08;94384.13;;;2.96;100.00
13027;BME280;6580;42.680;23.324;2023-01-27T10:48:46;94364.94;;;2.65;100.00
13027;BME280;6580;42.680;23.324;2023-01-27T10:51:20;94376.41;;;2.64;100.00
13027;BME280;6580;42.680;23.324;2023-01-27T10:53:54;94365.28;;;2.81;100.00
13027;BME280;6580;42.680;23.324;2023-01-27T10:56:27;94365.81;;;2.75;100.00
13027;BME280;6580;42.680;23.324;2023-01-27T10:59:03;94375.50;;;2.84;100.00
13027;BME280;6580;42.680;23.324;2023-01-27T11:01:35;94373.91;;;2.63;100.00
13027;BME280;6580;42.680;23.324;2023-01-27T11:04:09;94376.19;;;2.77;100.00
13027;BME280;6580;42.680;23.324;2023-01-27T11:06:40;94376.00;;;2.59;100.00
13027;BME280;6580;42.680;23.324;2023-01-27T11:09:16;94370.50;;;2.72;100.00
13027;BME280;6580;42.680;23.324;2023-01-27T11:11:45;94377.47;;;2.92;100.00
13027;BME280;6580;42.680;23.324;2023-01-27T11:14:22;94385.16;;;3.13;100.00
13027;BME280;6580;42.680;23.324;2023-01-27T11:16:52;94378.13;;;3.14;100.00
13027;BME280;6580;42.680;23.324;2023-01-27T11:19:37;94364.81;;;3.15;100.00
13027;BME280;6580;42.680;23.324;2023-01-27T11:22:16;94361.34;;;3.05;100.00
13027;BME280;6580;42.680;23.324;2023-01-27T11:24:48;94355.81;;;3.08;100.00
13027;BME280;6580;42.680;23.324;2023-01-27T11:27:26;94356.47;;;3.01;100.00
13027;BME280;6580;42.680;23.324;2023-01-27T11:30:03;94354.97;;;3.08;100.00
13027;BME280;6580;42.680;23.324;2023-01-27T11:32:43;94349.44;;;3.01;100.00
13027;BME280;6580;42.680;23.324;2023-01-27T11:35:14;94347.31;;;2.96;100.00
13027;BME280;6580;42.680;23.324;2023-01-27T11:37:42;94344.16;;;2.92;100.00
13027;BME280;6580;42.680;23.324;2023-01-27T11:40:20;94356.34;;;3.02;100.00
13027;BME280;6580;42.680;23.324;2023-01-27T11:42:49;94355.34;;;2.85;100.00
13027;BME280;6580;42.680;23.324;2023-01-27T11:45:19;94347.44;;;2.85;100.00
13027;BME280;6580;42.680;23.324;2023-01-27T11:47:48;94344.97;;;2.93;100.00
13027;BME280;6580;42.680;23.324;2023-01-27T11:50:17;94348.56;;;2.92;100.00
13027;BME280;6580;42.680;23.324;2023-01-27T11:52:49;94344.00;;;2.94;100.00
13027;BME280;6580;42.680;23.324;2023-01-27T11:55:19;94329.22;;;3.02;100.00
13027;BME280;6580;42.680;23.324;2023-01-27T11:57:52;94337.69;;;3.05;100.00
13027;BME280;6580;42.680;23.324;2023-01-27T12:00:25;94341.81;;;2.98;100.00
13027;BME280;6580;42.680;23.324;2023-01-27T12:03:03;94334.09;;;3.06;100.00
13027;BME280;6580;42.680;23.324;2023-01-27T12:05:34;94339.72;;;3.02;100.00
13027;BME280;6580;42.680;23.324;2023-01-27T12:08:03;94337.13;;;3.11;100.00
13027;BME280;6580;42.680;23.324;2023-01-27T12:10:32;94343.13;;;3.32;100.00
13027;BME280;6580;42.680;23.324;2023-01-27T12:13:06;94338.81;;;3.22;100.00
13027;BME280;6580;42.680;23.324;2023-01-27T12:15:35;94343.66;;;3.17;100.00
13027;BME280;6580;42.680;23.324;2023-01-27T12:18:11;94334.25;;;3.24;100.00
13027;BME280;6580;42.680;23.324;2023-01-27T12:20:41;94339.19;;;3.08;100.00
13027;BME280;6580;42.680;23.324;2023-01-27T12:23:18;94341.44;;;3.31;100.00
13027;BME280;6580;42.680;23.324;2023-01-27T12:25:49;94349.34;;;3.31;100.00
13027;BME280;6580;42.680;23.324;2023-01-27T12:28:30;94349.09;;;3.44;100.00
13027;BME280;6580;42.680;23.324;2023-01-27T12:31:06;94336.34;;;3.30;100.00
13027;BME280;6580;42.680;23.324;2023-01-27T12:33:37;94342.44;;;3.40;100.00
13027;BME280;6580;42.680;23.324;2023-01-27T12:36:11;94343.56;;;3.47;100.00
13027;BME280;6580;42.680;23.324;2023-01-27T12:38:44;94336.41;;;3.09;100.00
13027;BME280;6580;42.680;23.324;2023-01-27T12:41:19;94342.00;;;3.25;100.00
13027;BME280;6580;42.680;23.324;2023-01-27T12:43:52;94341.28;;;3.04;100.00
13027;BME280;6580;42.680;23.324;2023-01-27T12:46:23;94352.22;;;3.00;100.00
13027;BME280;6580;42.680;23.324;2023-01-27T12:48:52;94343.97;;;3.33;100.00
13027;BME280;6580;42.680;23.324;2023-01-27T12:51:21;94344.94;;;3.51;100.00
13027;BME280;6580;42.680;23.324;2023-01-27T12:53:49;94342.16;;;3.62;100.00
13027;BME280;6580;42.680;23.324;2023-01-27T12:56:18;94333.81;;;3.28;100.00
13027;BME280;6580;42.680;23.324;2023-01-27T12:58:56;94339.53;;;3.71;100.00
13027;BME280;6580;42.680;23.324;2023-01-27T13:01:30;94332.75;;;3.97;100.00
13027;BME280;6580;42.680;23.324;2023-01-27T13:04:01;94338.53;;;4.19;100.00
13027;BME280;6580;42.680;23.324;2023-01-27T13:06:37;94334.19;;;4.28;100.00
13027;BME280;6580;42.680;23.324;2023-01-27T13:09:21;94341.44;;;4.07;100.00
13027;BME280;6580;42.680;23.324;2023-01-27T13:11:57;94345.06;;;4.06;100.00
13027;BME280;6580;42.680;23.324;2023-01-27T13:14:38;94339.97;;;3.67;100.00
13027;BME280;6580;42.680;23.324;2023-01-27T13:17:26;94345.50;;;3.54;100.00
13027;BME280;6580;42.680;23.324;2023-01-27T13:19:55;94333.56;;;3.50;100.00
13027;BME280;6580;42.680;23.324;2023-01-27T13:22:24;94325.41;;;3.63;100.00
13027;BME280;6580;42.680;23.324;2023-01-27T13:24:57;94338.84;;;3.79;100.00